createdAt,value
2018-04-20T00:00:41.852Z,21.70
2018-04-20T00:01:41.869Z,21.20
2018-04-20T00:02:41.890Z,21.20
2018-04-20T00:03:41.909Z,21.90
2018-04-20T00:04:41.923Z,22.00
2018-04-20T00:05:41.955Z,22.60
2018-04-20T00:06:41.969Z,21.00
2018-04-20T00:07:41.978Z,22.30
2018-04-20T00:08:42.008Z,22.00
2018-04-20T00:09:42.020Z,21.10
2018-04-20T00:10:42.036Z,23.40
2018-04-20T00:11:42.070Z,22.90
2018-04-20T00:12:42.085Z,22.80
2018-04-20T00:13:42.094Z,22.40
2018-04-20T00:14:42.114Z,23.00
2018-04-20T00:15:42.133Z,23.10
2018-04-20T00:16:42.163Z,21.80
2018-04-20T00:17:42.172Z,22.20
2018-04-20T00:18:42.190Z,23.70
2018-04-20T00:19:42.209Z,23.00
2018-04-20T00:20:42.226Z,23.70
2018-04-20T00:21:42.250Z,23.00
2018-04-20T00:22:42.279Z,22.40
2018-04-20T00:23:42.311Z,23.60
2018-04-20T00:24:42.310Z,22.70
2018-04-20T00:25:42.327Z,23.00
2018-04-20T00:26:42.345Z,22.80
2018-04-20T00:27:42.370Z,23.30
2018-04-20T00:28:42.403Z,23.70
2018-04-20T00:29:42.398Z,22.60
2018-04-20T00:30:42.417Z,22.80
2018-04-20T00:31:42.438Z,24.40
2018-04-20T00:32:42.463Z,23.00
2018-04-20T00:33:42.478Z,23.70
2018-04-20T00:34:42.552Z,22.60
2018-04-20T00:35:42.523Z,22.60
2018-04-20T00:36:42.540Z,23.10
2018-04-20T00:37:42.553Z,23.30
2018-04-20T00:38:42.569Z,23.50
2018-04-20T00:39:42.599Z,23.20
2018-04-20T00:40:42.613Z,24.30
2018-04-20T00:41:42.646Z,24.10
2018-04-20T00:42:42.646Z,23.90
2018-04-20T00:43:42.661Z,23.40
2018-04-20T00:44:42.699Z,24.10
2018-04-20T00:45:42.712Z,23.10
2018-04-20T00:46:42.746Z,23.40
2018-04-20T00:47:42.741Z,24.60
2018-04-20T00:48:42.769Z,23.30
2018-04-20T00:49:42.787Z,22.60
2018-04-20T00:50:42.806Z,21.50
2018-04-20T00:51:42.821Z,22.40
2018-04-20T00:52:42.833Z,21.90
2018-04-20T00:53:42.862Z,23.70
2018-04-20T00:54:42.874Z,23.40
2018-04-20T00:55:42.892Z,22.60
2018-04-20T00:56:42.920Z,24.30
2018-04-20T00:57:42.937Z,22.70
2018-04-20T00:58:42.962Z,22.60
2018-04-20T00:59:42.966Z,23.00
2018-04-20T01:00:43.047Z,22.90
2018-04-20T01:01:43.072Z,22.30
2018-04-20T01:02:43.030Z,22.10
2018-04-20T01:03:43.053Z,23.50
2018-04-20T01:04:43.068Z,21.90
2018-04-20T01:05:43.091Z,23.10
2018-04-20T01:06:43.118Z,23.80
2018-04-20T01:07:43.118Z,23.70
2018-04-20T01:08:43.163Z,22.60
2018-04-20T01:09:43.160Z,22.20
2018-04-20T01:10:43.181Z,22.90
2018-04-20T01:11:43.193Z,22.80
2018-04-20T01:12:43.215Z,23.30
2018-04-20T01:13:43.235Z,23.80
2018-04-20T01:14:43.256Z,22.70
2018-04-20T01:15:43.287Z,24.00
2018-04-20T01:16:43.307Z,23.70
2018-04-20T01:17:43.314Z,23.00
2018-04-20T01:18:43.333Z,23.60
2018-04-20T01:19:43.351Z,22.80
2018-04-20T01:20:43.369Z,22.70
2018-04-20T01:21:43.381Z,23.30
2018-04-20T01:22:43.406Z,24.00
2018-04-20T01:23:43.425Z,23.40
2018-04-20T01:24:43.443Z,23.10
2018-04-20T01:25:43.460Z,23.10
2018-04-20T01:26:43.483Z,23.30
2018-04-20T01:27:43.507Z,22.80
2018-04-20T01:28:43.518Z,24.00
2018-04-20T01:29:43.538Z,23.50
2018-04-20T01:30:43.557Z,24.10
2018-04-20T01:31:43.602Z,23.80
2018-04-20T01:32:43.595Z,23.50
2018-04-20T01:33:43.627Z,24.00
2018-04-20T01:34:43.648Z,23.50
2018-04-20T01:35:43.656Z,23.10
2018-04-20T01:36:43.669Z,22.60
2018-04-20T01:37:43.702Z,23.40
2018-04-20T01:38:43.703Z,23.40
2018-04-20T01:39:43.723Z,23.20
2018-04-20T01:40:43.749Z,23.60
2018-04-20T01:41:43.776Z,22.60
2018-04-20T01:42:43.779Z,23.40
2018-04-20T01:43:43.805Z,23.30
2018-04-20T01:44:43.833Z,22.40
2018-04-20T01:45:43.842Z,23.00
2018-04-20T01:46:43.860Z,22.70
2018-04-20T01:47:43.873Z,23.00
2018-04-20T01:48:43.905Z,22.90
2018-04-20T01:49:43.904Z,22.30
2018-04-20T01:50:43.949Z,22.70
2018-04-20T01:51:43.950Z,22.70
2018-04-20T01:52:43.988Z,23.20
2018-04-20T01:53:43.986Z,22.90
2018-04-20T01:54:44.007Z,23.00
2018-04-20T01:55:44.030Z,23.40
2018-04-20T01:56:44.062Z,24.20
2018-04-20T01:57:44.059Z,22.30
2018-04-20T01:58:44.077Z,23.60
2018-04-20T01:59:44.138Z,23.90
2018-04-20T02:00:44.134Z,23.10
2018-04-20T02:01:44.134Z,23.80
2018-04-20T02:02:44.152Z,23.60
2018-04-20T02:03:44.180Z,24.20
2018-04-20T02:04:44.194Z,23.90
2018-04-20T02:05:44.223Z,24.40
2018-04-20T02:06:44.229Z,24.30
2018-04-20T02:07:44.250Z,23.60
2018-04-20T02:08:44.264Z,23.50
2018-04-20T02:09:44.283Z,22.90
2018-04-20T02:10:44.310Z,24.80
2018-04-20T02:11:44.327Z,24.20
2018-04-20T02:12:44.365Z,24.50
2018-04-20T02:13:44.366Z,23.90
2018-04-20T02:14:44.380Z,24.50
2018-04-20T02:15:44.407Z,24.70
2018-04-20T02:16:44.432Z,23.70
2018-04-20T02:17:44.440Z,24.90
2018-04-20T02:18:44.454Z,24.30
2018-04-20T02:19:44.482Z,25.60
2018-04-20T02:20:44.512Z,23.80
2018-04-20T02:21:44.510Z,23.70
2018-04-20T02:22:44.530Z,24.90
2018-04-20T02:23:44.551Z,24.40
2018-04-20T02:24:44.566Z,24.30
2018-04-20T02:25:44.582Z,23.60
2018-04-20T02:26:44.603Z,23.80
2018-04-20T02:27:44.620Z,24.90
2018-04-20T02:28:44.648Z,23.40
2018-04-20T02:29:44.660Z,24.20
2018-04-20T02:30:44.680Z,25.30
2018-04-20T02:31:44.695Z,25.40
2018-04-20T02:32:44.726Z,24.80
2018-04-20T02:33:44.748Z,25.00
2018-04-20T02:34:44.754Z,24.20
2018-04-20T02:35:44.779Z,25.50
2018-04-20T02:36:44.802Z,24.60
2018-04-20T02:37:44.823Z,24.70
2018-04-20T02:38:44.828Z,24.70
2018-04-20T02:39:44.846Z,24.70
2018-04-20T02:40:44.877Z,24.40
2018-04-20T02:41:44.879Z,24.70
2018-04-20T02:42:44.900Z,25.30
2018-04-20T02:43:44.925Z,24.90
2018-04-20T02:44:44.940Z,26.70
2018-04-20T02:45:44.957Z,25.60
2018-04-20T02:46:44.977Z,24.80
2018-04-20T02:47:44.997Z,24.60
2018-04-20T02:48:45.024Z,24.40
2018-04-20T02:49:45.043Z,25.40
2018-04-20T02:50:45.058Z,24.90
2018-04-20T02:51:45.071Z,25.50
2018-04-20T02:52:45.086Z,23.90
2018-04-20T02:53:45.106Z,25.00
2018-04-20T02:54:45.139Z,25.10
2018-04-20T02:55:45.158Z,25.60
2018-04-20T02:56:45.167Z,24.80
2018-04-20T02:57:45.180Z,25.60
2018-04-20T02:58:45.201Z,26.00
2018-04-20T02:59:45.220Z,23.90
2018-04-20T03:00:45.247Z,24.80
2018-04-20T03:01:45.254Z,23.90
2018-04-20T03:02:45.276Z,23.80
2018-04-20T03:03:45.300Z,25.40
2018-04-20T03:04:45.328Z,24.80
2018-04-20T03:05:45.334Z,24.00
2018-04-20T03:06:45.349Z,23.90
2018-04-20T03:07:45.365Z,24.80
2018-04-20T03:08:45.385Z,23.20
2018-04-20T03:09:45.414Z,26.20
2018-04-20T03:10:45.417Z,24.30
2018-04-20T03:11:45.446Z,24.90
2018-04-20T03:12:45.457Z,25.40
2018-04-20T03:13:45.480Z,26.20
2018-04-20T03:14:45.494Z,24.30
2018-04-20T03:15:45.536Z,25.30
2018-04-20T03:16:45.573Z,24.30
2018-04-20T03:17:45.549Z,24.80
2018-04-20T03:18:45.570Z,25.50
2018-04-20T03:19:45.582Z,24.50
2018-04-20T03:20:45.607Z,25.80
2018-04-20T03:21:45.621Z,26.00
2018-04-20T03:22:45.641Z,26.00
2018-04-20T03:23:45.662Z,26.10
2018-04-20T03:24:45.681Z,25.70
2018-04-20T03:25:45.699Z,24.10
2018-04-20T03:26:45.720Z,26.20
2018-04-20T03:27:45.731Z,24.80
2018-04-20T03:28:45.801Z,24.50
2018-04-20T03:29:45.776Z,24.70
2018-04-20T03:30:45.786Z,25.30
2018-04-20T03:31:45.803Z,23.90
2018-04-20T03:32:45.832Z,25.20
2018-04-20T03:33:45.843Z,24.20
2018-04-20T03:34:45.858Z,24.20
2018-04-20T03:35:45.877Z,24.70
2018-04-20T03:36:45.901Z,25.60
2018-04-20T03:37:45.920Z,24.90
2018-04-20T03:38:45.934Z,24.00
2018-04-20T03:39:45.955Z,24.20
2018-04-20T03:40:45.971Z,24.40
2018-04-20T03:41:45.987Z,24.60
2018-04-20T03:42:46.006Z,24.60
2018-04-20T03:43:46.031Z,24.90
2018-04-20T03:44:46.045Z,24.60
2018-04-20T03:45:46.063Z,24.80
2018-04-20T03:46:46.103Z,25.40
2018-04-20T03:47:46.097Z,25.20
2018-04-20T03:48:46.129Z,25.20
2018-04-20T03:49:46.144Z,25.60
2018-04-20T03:50:46.161Z,24.70
2018-04-20T03:51:46.196Z,25.40
2018-04-20T03:52:46.186Z,26.10
2018-04-20T03:53:46.205Z,26.20
2018-04-20T03:54:46.230Z,25.50
2018-04-20T03:55:46.249Z,26.40
2018-04-20T03:56:46.273Z,24.50
2018-04-20T03:57:46.289Z,27.10
2018-04-20T03:58:46.295Z,25.60
2018-04-20T03:59:46.314Z,25.60
2018-04-20T04:00:46.347Z,24.90
2018-04-20T04:01:46.351Z,24.70
2018-04-20T04:02:46.372Z,24.80
2018-04-20T04:03:46.402Z,25.50
2018-04-20T04:04:46.410Z,24.50
2018-04-20T04:05:46.423Z,25.20
2018-04-20T04:06:46.448Z,24.50
2018-04-20T04:07:46.463Z,25.80
2018-04-20T04:08:46.480Z,24.10
2018-04-20T04:09:46.496Z,26.00
2018-04-20T04:10:46.591Z,25.50
2018-04-20T04:11:46.534Z,24.10
2018-04-20T04:12:46.555Z,24.90
2018-04-20T04:13:46.574Z,25.10
2018-04-20T04:14:46.596Z,25.00
2018-04-20T04:15:46.614Z,26.20
2018-04-20T04:16:46.634Z,24.80
2018-04-20T04:17:46.647Z,27.00
2018-04-20T04:18:46.661Z,26.90
2018-04-20T04:19:46.680Z,26.80
2018-04-20T04:20:46.698Z,26.30
2018-04-20T04:21:46.724Z,26.50
2018-04-20T04:22:46.736Z,24.90
2018-04-20T04:23:46.754Z,25.80
2018-04-20T04:24:46.778Z,25.10
2018-04-20T04:25:46.785Z,25.00
2018-04-20T04:26:46.813Z,25.70
2018-04-20T04:27:46.840Z,24.70
2018-04-20T04:28:46.851Z,25.70
2018-04-20T04:29:46.863Z,25.80
2018-04-20T04:30:46.891Z,24.80
2018-04-20T04:31:46.891Z,25.70
2018-04-20T04:32:46.919Z,25.30
2018-04-20T04:33:46.941Z,26.50
2018-04-20T04:34:46.956Z,26.00
2018-04-20T04:35:46.975Z,25.80
2018-04-20T04:36:46.987Z,25.30
2018-04-20T04:37:47.009Z,25.80
2018-04-20T04:38:47.034Z,25.50
2018-04-20T04:39:47.042Z,25.10
2018-04-20T04:40:47.071Z,25.90
2018-04-20T04:41:47.088Z,24.90
2018-04-20T04:42:47.100Z,24.70
2018-04-20T04:43:47.114Z,24.50
2018-04-20T04:44:47.161Z,23.70
2018-04-20T04:45:47.155Z,23.60
2018-04-20T04:46:47.172Z,24.50
2018-04-20T04:47:47.187Z,23.50
2018-04-20T04:48:47.211Z,25.00
2018-04-20T04:49:47.249Z,23.60
2018-04-20T04:50:47.302Z,23.80
2018-04-20T04:51:47.289Z,23.10
2018-04-20T04:52:47.279Z,24.50
2018-04-20T04:53:47.298Z,24.20
2018-04-20T04:54:47.313Z,24.10
2018-04-20T04:55:47.335Z,24.30
2018-04-20T04:56:47.355Z,24.40
2018-04-20T04:57:47.372Z,25.00
2018-04-20T04:58:47.392Z,24.20
2018-04-20T04:59:47.410Z,23.90
2018-04-20T05:00:47.423Z,24.60
2018-04-20T05:01:47.442Z,24.40
2018-04-20T05:02:47.462Z,24.80
2018-04-20T05:03:47.488Z,25.50
2018-04-20T05:04:47.502Z,25.30
2018-04-20T05:05:47.533Z,25.90
2018-04-20T05:06:47.543Z,23.80
2018-04-20T05:07:47.556Z,22.80
2018-04-20T05:08:47.605Z,22.90
2018-04-20T05:09:47.594Z,22.00
2018-04-20T05:10:47.616Z,22.00
2018-04-20T05:11:47.643Z,22.30
2018-04-20T05:12:47.660Z,22.10
2018-04-20T05:13:47.680Z,21.90
2018-04-20T05:14:47.693Z,22.40
2018-04-20T05:15:47.711Z,20.90
2018-04-20T05:16:47.734Z,20.10
2018-04-20T05:17:47.752Z,22.30
2018-04-20T05:18:47.795Z,21.30
2018-04-20T05:19:47.805Z,20.60
2018-04-20T05:20:47.810Z,20.10
2018-04-20T05:21:47.847Z,21.00
2018-04-20T05:22:47.857Z,21.10
2018-04-20T05:23:47.879Z,21.70
2018-04-20T05:24:47.895Z,21.70
2018-04-20T05:25:47.930Z,21.40
2018-04-20T05:26:47.954Z,20.30
2018-04-20T05:27:47.967Z,20.30
2018-04-20T05:28:47.999Z,20.70
2018-04-20T05:29:48.011Z,20.00
2018-04-20T05:30:48.034Z,19.80
2018-04-20T05:31:48.050Z,20.60
2018-04-20T05:32:48.096Z,20.00
2018-04-20T05:33:48.094Z,19.50
2018-04-20T05:34:48.130Z,19.90
2018-04-20T05:35:48.146Z,19.50
2018-04-20T05:36:48.169Z,19.20
2018-04-20T05:37:48.189Z,19.80
2018-04-20T05:38:48.213Z,18.70
2018-04-20T05:39:48.230Z,19.10
2018-04-20T05:40:48.259Z,19.60
2018-04-20T05:41:48.283Z,18.90
2018-04-20T05:42:48.318Z,19.60
2018-04-20T05:43:48.332Z,19.10
2018-04-20T05:44:48.357Z,18.90
2018-04-20T05:45:48.376Z,18.00
2018-04-20T05:46:48.418Z,19.80
2018-04-20T05:47:48.424Z,19.90
2018-04-20T05:48:48.446Z,18.70
2018-04-20T05:49:48.476Z,19.40
2018-04-20T05:50:48.500Z,18.50
2018-04-20T05:51:48.528Z,19.50
2018-04-20T05:52:48.549Z,19.90
2018-04-20T05:53:48.570Z,18.80
2018-04-20T05:54:48.610Z,19.10
2018-04-20T05:55:48.622Z,17.90
2018-04-20T05:56:48.647Z,18.50
2018-04-20T05:57:48.670Z,18.80
2018-04-20T05:58:48.729Z,18.80
2018-04-20T05:59:48.721Z,17.90
2018-04-20T06:00:48.749Z,18.70
2018-04-20T06:01:48.784Z,17.70
2018-04-20T06:02:48.819Z,18.90
2018-04-20T06:03:48.861Z,18.90
2018-04-20T06:04:48.862Z,18.90
2018-04-20T06:05:48.900Z,19.00
2018-04-20T06:06:48.912Z,18.10
2018-04-20T06:07:48.936Z,19.00
2018-04-20T06:08:48.961Z,19.20
2018-04-20T06:09:48.989Z,19.10
2018-04-20T06:10:49.016Z,19.30
2018-04-20T06:11:49.044Z,19.00
2018-04-20T06:12:49.075Z,18.30
2018-04-20T06:13:49.091Z,18.50
2018-04-20T06:14:49.124Z,19.80
2018-04-20T06:15:49.152Z,18.60
2018-04-20T06:16:49.174Z,18.20
2018-04-20T06:17:49.232Z,19.10
2018-04-20T06:18:49.231Z,17.80
2018-04-20T06:19:49.251Z,18.50
2018-04-20T06:20:49.297Z,18.50
2018-04-20T06:21:49.308Z,18.40
2018-04-20T06:22:49.347Z,18.30
2018-04-20T06:23:49.367Z,18.00
2018-04-20T06:24:49.397Z,17.60
2018-04-20T06:25:49.425Z,18.20
2018-04-20T06:26:49.462Z,18.30
2018-04-20T06:27:49.475Z,17.80
2018-04-20T06:28:49.519Z,18.00
2018-04-20T06:29:49.537Z,17.80
2018-04-20T06:30:49.566Z,17.80
2018-04-20T06:31:49.591Z,18.90
2018-04-20T06:32:49.642Z,18.30
2018-04-20T06:33:49.656Z,18.90
2018-04-20T06:34:49.676Z,18.00
2018-04-20T06:35:49.707Z,17.90
2018-04-20T06:36:49.735Z,17.90
2018-04-20T06:37:49.765Z,18.10
2018-04-20T06:38:49.798Z,17.30
2018-04-20T06:39:49.828Z,18.00
2018-04-20T06:40:49.851Z,17.80
2018-04-20T06:41:49.878Z,17.20
2018-04-20T06:42:49.909Z,17.40
2018-04-20T06:43:49.938Z,17.00
2018-04-20T06:44:49.971Z,16.90
2018-04-20T06:45:49.997Z,16.80
2018-04-20T06:46:50.030Z,17.10
2018-04-20T06:47:50.055Z,17.50
2018-04-20T06:48:50.090Z,16.90
2018-04-20T06:49:50.115Z,18.00
2018-04-20T06:50:50.148Z,17.60
2018-04-20T06:51:50.182Z,17.50
2018-04-20T06:52:50.217Z,16.90
2018-04-20T06:53:50.230Z,17.90
2018-04-20T06:54:50.265Z,16.30
2018-04-20T06:55:50.288Z,16.90
2018-04-20T06:56:50.346Z,17.20
2018-04-20T06:57:50.344Z,17.60
2018-04-20T06:58:50.374Z,15.70
2018-04-20T06:59:50.405Z,16.30
2018-04-20T07:00:50.443Z,17.40
2018-04-20T07:01:50.463Z,17.30
2018-04-20T07:02:50.488Z,16.70
2018-04-20T07:03:50.517Z,16.90
2018-04-20T07:04:50.637Z,17.00
2018-04-20T07:05:50.578Z,15.50
2018-04-20T07:06:50.607Z,17.40
2018-04-20T07:07:50.627Z,17.10
2018-04-20T07:08:50.658Z,16.60
2018-04-20T07:09:50.687Z,16.20
2018-04-20T07:10:50.737Z,17.10
2018-04-20T07:11:50.749Z,16.40
2018-04-20T07:12:50.769Z,16.30
2018-04-20T07:13:50.842Z,15.10
2018-04-20T07:14:50.830Z,16.10
2018-04-20T07:15:50.856Z,16.10
2018-04-20T07:16:50.884Z,16.10
2018-04-20T07:17:50.905Z,15.80
2018-04-20T07:18:50.950Z,14.70
2018-04-20T07:19:50.970Z,13.50
2018-04-20T07:20:50.988Z,15.00
2018-04-20T07:21:51.024Z,14.60
2018-04-20T07:22:51.051Z,14.10
2018-04-20T07:23:51.081Z,13.50
2018-04-20T07:24:51.103Z,14.50
2018-04-20T07:25:51.140Z,13.10
2018-04-20T07:26:51.177Z,13.60
2018-04-20T07:27:51.193Z,14.40
2018-04-20T07:28:51.225Z,14.30
2018-04-20T07:29:51.269Z,13.60
2018-04-20T07:30:51.285Z,13.50
2018-04-20T07:31:51.312Z,13.60
2018-04-20T07:32:51.334Z,14.00
2018-04-20T07:33:51.362Z,13.40
2018-04-20T07:34:51.397Z,12.30
2018-04-20T07:35:51.421Z,12.40
2018-04-20T07:36:51.453Z,12.20
2018-04-20T07:37:51.475Z,12.30
2018-04-20T07:38:51.500Z,11.80
2018-04-20T07:39:51.544Z,12.00
2018-04-20T07:40:51.570Z,11.40
2018-04-20T07:41:51.592Z,11.70
2018-04-20T07:42:51.629Z,10.70
2018-04-20T07:43:51.646Z,11.50
2018-04-20T07:44:51.672Z,10.80
2018-04-20T07:45:51.718Z,11.10
2018-04-20T07:46:51.732Z,10.50
2018-04-20T07:47:51.763Z,11.30
2018-04-20T07:48:51.800Z,11.00
2018-04-20T07:49:51.828Z,9.90
2018-04-20T07:50:51.856Z,11.00
2018-04-20T07:51:51.893Z,10.60
2018-04-20T07:52:51.907Z,11.10
2018-04-20T07:53:51.938Z,10.10
2018-04-20T07:54:51.965Z,11.10
2018-04-20T07:55:51.991Z,10.30
2018-04-20T07:56:52.029Z,10.10
2018-04-20T07:57:52.065Z,9.90
2018-04-20T07:58:52.082Z,10.20
2018-04-20T07:59:52.107Z,9.70
2018-04-20T08:00:52.133Z,9.40
2018-04-20T08:01:52.164Z,9.20
2018-04-20T08:02:52.208Z,9.20
2018-04-20T08:03:52.226Z,9.80
2018-04-20T08:04:52.259Z,9.50
2018-04-20T08:05:52.283Z,9.10
2018-04-20T08:06:52.322Z,8.90
2018-04-20T08:07:52.339Z,9.30
2018-04-20T08:08:52.367Z,8.90
2018-04-20T08:09:52.399Z,9.80
2018-04-20T08:10:52.459Z,9.80
2018-04-20T08:11:52.465Z,9.00
2018-04-20T08:12:52.486Z,9.00
2018-04-20T08:13:52.565Z,8.70
2018-04-20T08:14:52.549Z,8.60
2018-04-20T08:15:52.576Z,8.00
2018-04-20T08:16:52.605Z,7.80
2018-04-20T08:17:52.633Z,7.90
2018-04-20T08:18:52.661Z,8.00
2018-04-20T08:19:52.693Z,7.70
2018-04-20T08:20:52.714Z,7.50
2018-04-20T08:21:52.751Z,7.70
2018-04-20T08:22:52.785Z,7.60
2018-04-20T08:23:52.806Z,7.10
2018-04-20T08:24:52.833Z,7.60
2018-04-20T08:25:52.859Z,7.50
2018-04-20T08:26:52.889Z,6.90
2018-04-20T08:27:52.920Z,6.30
2018-04-20T08:28:52.952Z,7.30
2018-04-20T08:29:52.975Z,7.30
2018-04-20T08:30:53.016Z,7.20
2018-04-20T08:31:53.031Z,7.60
2018-04-20T08:32:53.060Z,7.10
2018-04-20T08:33:53.091Z,7.40
2018-04-20T08:34:53.113Z,7.50
2018-04-20T08:35:53.143Z,8.20
2018-04-20T08:36:53.181Z,7.80
2018-04-20T08:37:53.218Z,8.20
2018-04-20T08:38:53.225Z,7.80
2018-04-20T08:39:53.241Z,8.00
2018-04-20T08:40:53.277Z,8.10
2018-04-20T08:41:53.302Z,7.50
2018-04-20T08:42:53.325Z,7.70
2018-04-20T08:43:53.358Z,8.00
2018-04-20T08:44:53.383Z,7.90
2018-04-20T08:45:53.409Z,7.40
2018-04-20T08:46:53.427Z,7.70
2018-04-20T08:47:53.451Z,8.10
2018-04-20T08:48:53.477Z,8.20
2018-04-20T08:49:53.508Z,8.20
2018-04-20T08:50:53.529Z,7.70
2018-04-20T08:51:53.556Z,8.20
2018-04-20T08:52:53.601Z,7.90
2018-04-20T08:53:53.606Z,8.30
2018-04-20T08:54:53.636Z,8.50
2018-04-20T08:55:53.667Z,8.40
2018-04-20T08:56:53.680Z,8.70
2018-04-20T08:57:53.709Z,8.50
2018-04-20T08:58:53.732Z,8.00
2018-04-20T08:59:53.761Z,8.30
2018-04-20T09:00:53.787Z,8.30
2018-04-20T09:01:53.812Z,8.30
2018-04-20T09:02:53.831Z,8.70
2018-04-20T09:03:53.859Z,8.60
2018-04-20T09:04:53.892Z,8.50
2018-04-20T09:05:53.913Z,8.60
2018-04-20T09:06:53.944Z,8.50
2018-04-20T09:07:53.963Z,8.80
2018-04-20T09:08:53.993Z,8.70
2018-04-20T09:09:54.021Z,8.70
2018-04-20T09:10:54.038Z,8.10
2018-04-20T09:11:54.062Z,8.30
2018-04-20T09:12:54.081Z,9.70
2018-04-20T09:13:54.119Z,9.50
2018-04-20T09:14:54.132Z,8.70
2018-04-20T09:15:54.160Z,8.80
2018-04-20T09:16:54.187Z,9.20
2018-04-20T09:17:54.212Z,9.20
2018-04-20T09:18:54.233Z,9.50
2018-04-20T09:19:54.282Z,10.10
2018-04-20T09:20:54.291Z,9.90
2018-04-20T09:21:54.317Z,9.70
2018-04-20T09:22:54.340Z,10.60
2018-04-20T09:23:54.367Z,10.60
2018-04-20T09:24:54.381Z,10.30
2018-04-20T09:25:54.416Z,9.90
2018-04-20T09:26:54.441Z,10.70
2018-04-20T09:27:54.458Z,10.10
2018-04-20T09:28:54.488Z,10.50
2018-04-20T09:29:54.520Z,10.30
2018-04-20T09:30:54.542Z,10.20
2018-04-20T09:31:54.556Z,10.50
2018-04-20T09:32:54.588Z,10.40
2018-04-20T09:33:54.607Z,10.30
2018-04-20T09:34:54.632Z,9.90
2018-04-20T09:35:54.654Z,10.50
2018-04-20T09:36:54.685Z,10.10
2018-04-20T09:37:54.701Z,10.30
2018-04-20T09:38:54.736Z,10.50
2018-04-20T09:39:54.755Z,10.00
2018-04-20T09:40:54.779Z,9.90
2018-04-20T09:41:54.806Z,10.20
2018-04-20T09:42:54.829Z,10.40
2018-04-20T09:43:54.857Z,10.50
2018-04-20T09:44:54.878Z,9.80
2018-04-20T09:45:54.904Z,9.80
2018-04-20T09:46:54.935Z,10.90
2018-04-20T09:47:54.952Z,10.50
2018-04-20T09:48:54.983Z,8.60
2018-04-20T09:49:55.012Z,9.40
2018-04-20T09:50:55.027Z,9.30
2018-04-20T09:51:55.057Z,9.70
2018-04-20T09:52:55.080Z,8.90
2018-04-20T09:53:55.109Z,10.20
2018-04-20T09:54:55.150Z,9.40
2018-04-20T09:55:55.155Z,9.20
2018-04-20T09:56:55.178Z,8.90
2018-04-20T09:57:55.209Z,8.50
2018-04-20T09:58:55.235Z,9.40
2018-04-20T09:59:55.261Z,8.70
2018-04-20T10:00:55.288Z,8.70
2018-04-20T10:01:55.306Z,8.40
2018-04-20T10:02:55.333Z,8.20
2018-04-20T10:03:55.355Z,8.00
2018-04-20T10:04:55.381Z,7.60
2018-04-20T10:05:55.411Z,8.20
2018-04-20T10:06:55.430Z,8.30
2018-04-20T10:07:55.457Z,8.70
2018-04-20T10:08:55.486Z,8.10
2018-04-20T10:09:55.509Z,8.30
2018-04-20T10:10:55.528Z,8.10
2018-04-20T10:11:55.561Z,8.70
2018-04-20T10:12:55.606Z,7.70
2018-04-20T10:13:55.619Z,8.30
2018-04-20T10:14:55.636Z,8.00
2018-04-20T10:15:55.655Z,8.20
2018-04-20T10:16:55.685Z,8.70
2018-04-20T10:17:55.714Z,9.60
2018-04-20T10:18:55.743Z,9.30
2018-04-20T10:19:55.760Z,9.00
2018-04-20T10:20:55.800Z,9.10
2018-04-20T10:21:55.813Z,8.90
2018-04-20T10:22:55.842Z,9.30
2018-04-20T10:23:55.868Z,9.20
2018-04-20T10:24:55.886Z,9.20
2018-04-20T10:25:55.918Z,9.10
2018-04-20T10:26:55.961Z,9.80
2018-04-20T10:27:55.970Z,9.60
2018-04-20T10:28:56.011Z,8.30
2018-04-20T10:29:56.018Z,8.10
2018-04-20T10:30:56.049Z,8.60
2018-04-20T10:31:56.073Z,8.70
2018-04-20T10:32:56.097Z,8.30
2018-04-20T10:33:56.115Z,8.60
2018-04-20T10:34:56.139Z,8.40
2018-04-20T10:35:56.162Z,8.20
2018-04-20T10:36:56.189Z,8.70
2018-04-20T10:37:56.215Z,7.70
2018-04-20T10:38:56.260Z,8.20
2018-04-20T10:39:56.266Z,7.80
2018-04-20T10:40:56.294Z,8.10
2018-04-20T10:41:56.315Z,7.20
2018-04-20T10:42:56.349Z,8.40
2018-04-20T10:43:56.368Z,8.10
2018-04-20T10:44:56.395Z,7.60
2018-04-20T10:45:56.418Z,7.30
2018-04-20T10:46:56.458Z,7.60
2018-04-20T10:47:56.469Z,6.70
2018-04-20T10:48:56.500Z,6.40
2018-04-20T10:49:56.532Z,6.00
2018-04-20T10:50:56.687Z,6.30
2018-04-20T10:51:56.567Z,6.40
2018-04-20T10:52:56.601Z,5.90
2018-04-20T10:53:56.619Z,6.20
2018-04-20T10:54:56.645Z,6.30
2018-04-20T10:55:56.670Z,5.30
2018-04-20T10:56:56.700Z,5.70
2018-04-20T10:57:56.721Z,6.20
2018-04-20T10:58:56.777Z,5.10
2018-04-20T10:59:56.777Z,5.30
2018-04-20T11:00:56.807Z,5.30
2018-04-20T11:01:56.825Z,5.10
2018-04-20T11:02:56.854Z,5.20
2018-04-20T11:03:56.874Z,4.80
2018-04-20T11:04:56.902Z,5.00
2018-04-20T11:05:56.931Z,4.50
2018-04-20T11:06:56.953Z,5.50
2018-04-20T11:07:56.980Z,5.00
2018-04-20T11:08:57.008Z,5.30
2018-04-20T11:09:57.036Z,5.20
2018-04-20T11:10:57.060Z,5.20
2018-04-20T11:11:57.085Z,4.80
2018-04-20T11:12:57.106Z,4.30
2018-04-20T11:13:57.132Z,4.30
2018-04-20T11:14:57.168Z,4.20
2018-04-20T11:15:57.192Z,4.30
2018-04-20T11:16:57.205Z,4.40
2018-04-20T11:17:57.235Z,4.30
2018-04-20T11:18:57.259Z,4.80
2018-04-20T11:19:57.287Z,5.20
2018-04-20T11:20:57.316Z,4.80
2018-04-20T11:21:57.335Z,4.20
2018-04-20T11:22:57.361Z,4.30
2018-04-20T11:23:57.394Z,4.20
2018-04-20T11:24:57.422Z,5.00
2018-04-20T11:25:57.439Z,4.60
2018-04-20T11:26:57.472Z,4.50
2018-04-20T11:27:57.494Z,4.90
2018-04-20T11:28:57.516Z,4.90
2018-04-20T11:29:57.545Z,4.60
2018-04-20T11:30:57.589Z,5.10
2018-04-20T11:31:57.624Z,5.60
2018-04-20T11:32:57.616Z,5.20
2018-04-20T11:33:57.655Z,5.10
2018-04-20T11:34:57.688Z,5.10
2018-04-20T11:35:57.700Z,5.50
2018-04-20T11:36:57.742Z,5.70
2018-04-20T11:37:57.749Z,6.10
2018-04-20T11:38:57.777Z,5.90
2018-04-20T11:39:57.801Z,6.10
2018-04-20T11:40:57.827Z,5.60
2018-04-20T11:41:57.867Z,5.50
2018-04-20T11:42:57.872Z,5.20
2018-04-20T11:43:57.901Z,5.60
2018-04-20T11:44:57.950Z,6.10
2018-04-20T11:45:57.959Z,6.00
2018-04-20T11:46:57.990Z,6.00
2018-04-20T11:47:58.005Z,5.50
2018-04-20T11:48:58.033Z,7.60
2018-04-20T11:49:58.069Z,5.90
2018-04-20T11:50:58.088Z,5.70
2018-04-20T11:51:58.116Z,5.10
2018-04-20T11:52:58.144Z,5.40
2018-04-20T11:53:58.193Z,5.10
2018-04-20T11:54:58.192Z,5.50
2018-04-20T11:55:58.214Z,5.70
2018-04-20T11:56:58.246Z,6.00
2018-04-20T11:57:58.273Z,5.20
2018-04-20T11:58:58.296Z,5.40
2018-04-20T11:59:58.324Z,5.10
2018-04-20T12:00:58.343Z,4.90
2018-04-20T12:01:58.371Z,5.60
2018-04-20T12:02:58.400Z,5.50
2018-04-20T12:03:58.428Z,6.30
2018-04-20T12:04:58.452Z,5.30
2018-04-20T12:05:58.485Z,5.30
2018-04-20T12:06:58.500Z,5.10
2018-04-20T12:07:58.532Z,5.10
2018-04-20T12:08:58.554Z,5.50
2018-04-20T12:09:58.604Z,5.90
2018-04-20T12:10:58.604Z,5.00
2018-04-20T12:11:58.633Z,4.80
2018-04-20T12:12:58.659Z,5.30
2018-04-20T12:13:58.703Z,4.60
2018-04-20T12:14:58.710Z,5.50
2018-04-20T12:15:58.749Z,4.70
2018-04-20T12:16:58.771Z,4.90
2018-04-20T12:17:58.808Z,3.70
2018-04-20T12:18:58.813Z,3.60
2018-04-20T12:19:58.836Z,3.60
2018-04-20T12:20:58.895Z,3.40
2018-04-20T12:21:58.889Z,3.70
2018-04-20T12:22:58.916Z,3.90
2018-04-20T12:23:58.963Z,3.80
2018-04-20T12:24:58.971Z,3.60
2018-04-20T12:25:58.997Z,3.20
2018-04-20T12:26:59.032Z,3.70
2018-04-20T12:27:59.057Z,4.30
2018-04-20T12:28:59.077Z,4.50
2018-04-20T12:29:59.097Z,3.50
2018-04-20T12:30:59.138Z,3.50
2018-04-20T12:31:59.159Z,3.40
2018-04-20T12:32:59.189Z,3.40
2018-04-20T12:33:59.209Z,3.50
2018-04-20T12:34:59.233Z,4.00
2018-04-20T12:35:59.252Z,4.70
2018-04-20T12:36:59.296Z,3.50
2018-04-20T12:37:59.306Z,4.20
2018-04-20T12:38:59.332Z,3.80
2018-04-20T12:39:59.361Z,4.30
2018-04-20T12:40:59.393Z,4.00
2018-04-20T12:41:59.428Z,4.20
2018-04-20T12:42:59.436Z,3.50
2018-04-20T12:43:59.459Z,3.20
2018-04-20T12:44:59.509Z,3.60
2018-04-20T12:45:59.528Z,4.40
2018-04-20T12:46:59.534Z,4.60
2018-04-20T12:47:59.569Z,4.90
2018-04-20T12:48:59.593Z,4.80
2018-04-20T12:49:59.613Z,4.60
2018-04-20T12:50:59.642Z,4.50
2018-04-20T12:51:59.667Z,4.60
2018-04-20T12:52:59.706Z,5.30
2018-04-20T12:53:59.720Z,4.70
2018-04-20T12:54:59.752Z,4.30
2018-04-20T12:55:59.775Z,4.70
2018-04-20T12:56:59.802Z,5.00
2018-04-20T12:57:59.824Z,5.10
2018-04-20T12:58:59.845Z,4.90
2018-04-20T12:59:59.878Z,4.70
2018-04-20T13:00:59.900Z,4.70
2018-04-20T13:01:59.932Z,4.70